Time;durP1;ratioP1;P1;durP2;ratioP2;P2;SDS_P1;SDS_P2;PMS_P1;PMS_P2;Temp;Humidity;BMP_temperature;BMP_pressure;BME280_temperature;BME280_humidity;BME280_pressure;Samples;Min_cycle;Max_cycle;Signal;HPM_P1;HPM_P2
2021/12/18 00:01:53;;;;;;;19.30;10.65;;;;;;;;;;5093897;28;20036;-67
2021/12/18 00:04:19;;;;;;;27.15;11.32;;;;;;;;;;5093806;28;20114;-66
2021/12/18 00:06:45;;;;;;;20.17;10.63;;;;;;;;;;5093638;28;20417;-66
2021/12/18 00:09:12;;;;;;;20.35;11.23;;;;;;;;;;5093833;28;20043;-66
2021/12/18 00:11:38;;;;;;;22.48;12.02;;;;;;;;;;5093767;28;20040;-66
2021/12/18 00:14:04;;;;;;;24.13;10.90;;;;;;;;;;5092382;28;20051;-67
2021/12/18 00:16:30;;;;;;;18.85;11.10;;;;;;;;;;5093933;28;20028;-67
2021/12/18 00:18:58;;;;;;;25.27;11.82;;;;;;;;;;5092360;28;20445;-67
2021/12/18 00:21:25;;;;;;;28.02;12.30;;;;;;;;;;5093637;28;20026;-67
2021/12/18 00:23:52;;;;;;;22.95;11.75;;;;;;;;;;5093507;28;20084;-66
2021/12/18 00:26:19;;;;;;;23.83;13.00;;;;;;;;;;5093583;28;20038;-67
2021/12/18 00:28:47;;;;;;;19.80;11.45;;;;;;;;;;5093550;28;20028;-66
2021/12/18 00:31:13;;;;;;;20.65;10.95;;;;;;;;;;5092202;28;20043;-67
2021/12/18 00:33:39;;;;;;;22.83;11.38;;;;;;;;;;5092077;28;20059;-66
2021/12/18 00:36:06;;;;;;;18.65;11.63;;;;;;;;;;5093087;28;20024;-67
2021/12/18 00:38:32;;;;;;;27.63;12.32;;;;;;;;;;5093431;28;20094;-65
2021/12/18 00:41:12;;;;;;;24.95;12.77;;;;;;;;;;5093332;28;20107;-68
2021/12/18 00:44:01;;;;;;;28.48;12.73;;;;;;;;;;5093590;28;20222;-66
2021/12/18 00:46:26;;;;;;;28.77;13.02;;;;;;;;;;5092835;28;20472;-66
2021/12/18 00:48:52;;;;;;;28.17;13.27;;;;;;;;;;5093230;28;20020;-66
2021/12/18 00:51:18;;;;;;;26.05;12.52;;;;;;;;;;5092333;28;20500;-66
2021/12/18 00:53:44;;;;;;;30.50;13.32;;;;;;;;;;5093158;28;20032;-67
2021/12/18 00:56:11;;;;;;;22.52;13.13;;;;;;;;;;5093140;28;20064;-69
2021/12/18 00:58:37;;;;;;;27.52;12.73;;;;;;;;;;5093166;28;20052;-68
2021/12/18 01:01:08;;;;;;;21.05;11.20;;;;;;;;;;5091747;28;20028;-67
2021/12/18 01:03:35;;;;;;;29.10;12.32;;;;;;;;;;5093120;28;20059;-65
2021/12/18 01:06:01;;;;;;;26.08;12.77;;;;;;;;;;5091731;28;20036;-65
2021/12/18 01:08:27;;;;;;;23.80;12.30;;;;;;;;;;5092043;28;20028;-67
2021/12/18 01:13:46;;;;;;;22.38;12.23;;;;;;;;;;5093052;28;20411;-67
2021/12/18 01:16:19;;;;;;;26.55;12.90;;;;;;;;;;5093047;28;20021;-67
2021/12/18 01:24:48;;;;;;;24.02;12.32;;;;;;;;;;5030285;28;20103;-67
2021/12/18 01:27:15;;;;;;;23.25;12.35;;;;;;;;;;5079853;28;20110;-67
2021/12/18 01:29:41;;;;;;;27.45;13.15;;;;;;;;;;5092815;28;20524;-68
2021/12/18 01:32:07;;;;;;;25.73;13.20;;;;;;;;;;5091487;28;20050;-68
2021/12/18 01:34:34;;;;;;;23.98;12.27;;;;;;;;;;5092823;28;20554;-68
2021/12/18 01:37:00;;;;;;;28.45;12.77;;;;;;;;;;5091420;28;20024;-68
2021/12/18 01:39:26;;;;;;;24.20;12.05;;;;;;;;;;5091506;28;20020;-68
2021/12/18 01:42:36;;;;;;;22.77;12.75;;;;;;;;;;5092792;28;20020;-68
2021/12/18 01:45:12;;;;;;;27.47;13.83;;;;;;;;;;5092289;28;20476;-67
2021/12/18 01:53:11;;;;;;;24.35;14.27;;;;;;;;;;5092728;28;20161;-68
2021/12/18 01:55:38;;;;;;;30.83;14.30;;;;;;;;;;5092655;28;20028;-68
2021/12/18 01:58:05;;;;;;;23.77;13.73;;;;;;;;;;5092677;28;20058;-67
2021/12/18 02:00:35;;;;;;;26.05;15.13;;;;;;;;;;5092221;28;20422;-67
2021/12/18 02:03:01;;;;;;;30.75;15.95;;;;;;;;;;5092548;28;20016;-68
2021/12/18 02:05:27;;;;;;;24.23;13.95;;;;;;;;;;5096138;28;20024;-67
2021/12/18 02:07:53;;;;;;;24.30;14.05;;;;;;;;;;5096164;28;20531;-68
2021/12/18 02:10:23;;;;;;;23.92;13.63;;;;;;;;;;5096390;28;20024;-68
2021/12/18 02:20:53;;;;;;;27.98;13.63;;;;;;;;;;5095695;28;20035;-65
2021/12/18 02:23:19;;;;;;;25.50;13.68;;;;;;;;;;5094556;28;20020;-67
2021/12/18 02:25:47;;;;;;;25.42;13.27;;;;;;;;;;5095798;28;20116;-66
2021/12/18 02:28:20;;;;;;;22.48;12.18;;;;;;;;;;5095832;28;20479;-65
2021/12/18 02:30:47;;;;;;;25.35;13.40;;;;;;;;;;5095757;28;20054;-66
2021/12/18 02:33:13;;;;;;;20.77;13.45;;;;;;;;;;5095688;28;20457;-67
2021/12/18 02:35:46;;;;;;;23.27;13.20;;;;;;;;;;5095622;28;20468;-67
2021/12/18 02:38:18;;;;;;;23.42;12.98;;;;;;;;;;5095597;28;20023;-68
2021/12/18 02:43:15;;;;;;;21.90;12.23;;;;;;;;;;5095496;28;19943;-69
2021/12/18 02:45:42;;;;;;;21.52;12.02;;;;;;;;;;5095071;28;20408;-68
2021/12/18 02:48:08;;;;;;;23.10;13.02;;;;;;;;;;5095459;28;20495;-69
2021/12/18 02:50:38;;;;;;;28.80;13.25;;;;;;;;;;5093787;28;20051;-68
2021/12/18 02:53:05;;;;;;;28.33;12.73;;;;;;;;;;5093929;28;20032;-69
2021/12/18 02:55:31;;;;;;;27.05;12.13;;;;;;;;;;5093922;28;20070;-69
2021/12/18 02:57:57;;;;;;;26.20;13.13;;;;;;;;;;5094866;28;20110;-68
2021/12/18 03:00:25;;;;;;;24.60;13.88;;;;;;;;;;5095153;28;20028;-68
2021/12/18 03:02:52;;;;;;;22.75;13.02;;;;;;;;;;5095136;28;20028;-68
2021/12/18 03:05:25;;;;;;;22.38;12.25;;;;;;;;;;5095009;28;20028;-68
2021/12/18 03:07:59;;;;;;;27.63;13.35;;;;;;;;;;5095038;28;20061;-69
2021/12/18 03:19:51;;;;;;;30.50;17.38;;;;;;;;;;5094529;28;20404;-69
2021/12/18 03:22:34;;;;;;;31.43;14.63;;;;;;;;;;5094330;28;20028;-68
2021/12/18 03:24:44;;;;;;;21.90;12.55;;;;;;;;;;5094196;28;20771;-70
2021/12/18 03:27:10;;;;;;;26.60;13.93;;;;;;;;;;5094719;28;20479;-68
2021/12/18 03:29:36;;;;;;;21.08;11.80;;;;;;;;;;5094607;28;20099;-70
2021/12/18 03:32:03;;;;;;;23.17;11.80;;;;;;;;;;5093182;28;20034;-69
2021/12/18 03:34:29;;;;;;;22.05;11.65;;;;;;;;;;5093149;28;20031;-69
2021/12/18 03:36:55;;;;;;;22.63;11.57;;;;;;;;;;5093054;28;20459;-68
2021/12/18 03:39:21;;;;;;;22.38;11.65;;;;;;;;;;5093094;28;20040;-69
2021/12/18 03:41:47;;;;;;;22.30;10.85;;;;;;;;;;5094370;28;20047;-69
2021/12/18 03:44:17;;;;;;;21.85;11.10;;;;;;;;;;5092847;28;20078;-69
2021/12/18 03:46:43;;;;;;;21.90;11.32;;;;;;;;;;5092957;28;20056;-70
2021/12/18 03:49:09;;;;;;;19.92;11.13;;;;;;;;;;5092946;28;20123;-71
2021/12/18 03:51:35;;;;;;;27.20;13.55;;;;;;;;;;5093666;28;20449;-69
2021/12/18 03:54:02;;;;;;;24.92;12.55;;;;;;;;;;5094109;28;20043;-70
2021/12/18 03:56:28;;;;;;;21.95;11.63;;;;;;;;;;5094036;28;20077;-69
2021/12/18 03:58:55;;;;;;;18.50;11.43;;;;;;;;;;5092789;28;20025;-70
2021/12/18 04:01:21;;;;;;;21.35;12.23;;;;;;;;;;5094242;28;20032;-69
2021/12/18 04:03:47;;;;;;;23.63;11.40;;;;;;;;;;5092525;28;20024;-68
2021/12/18 04:06:14;;;;;;;23.85;13.30;;;;;;;;;;5092579;28;20472;-71
2021/12/18 04:08:40;;;;;;;25.42;14.02;;;;;;;;;;5092550;28;20107;-70
2021/12/18 04:11:06;;;;;;;31.00;14.68;;;;;;;;;;5092488;28;20058;-71
2021/12/18 04:13:33;;;;;;;23.80;13.55;;;;;;;;;;5092459;28;20093;-70
2021/12/18 04:15:59;;;;;;;32.15;17.25;;;;;;;;;;5093688;28;20067;-70
2021/12/18 04:18:25;;;;;;;33.70;19.33;;;;;;;;;;5093668;28;20016;-69
2021/12/18 04:20:52;;;;;;;34.55;21.08;;;;;;;;;;5093949;28;20556;-69
2021/12/18 04:23:18;;;;;;;29.92;16.85;;;;;;;;;;5093278;28;20107;-69
2021/12/18 04:25:44;;;;;;;23.75;14.18;;;;;;;;;;5091894;28;20032;-70
2021/12/18 04:28:10;;;;;;;20.98;12.57;;;;;;;;;;5093267;28;20036;-66
2021/12/18 04:30:37;;;;;;;23.85;13.18;;;;;;;;;;5093525;28;20026;-67
2021/12/18 04:33:03;;;;;;;26.88;13.13;;;;;;;;;;5092140;28;20020;-66
2021/12/18 04:35:29;;;;;;;33.30;16.95;;;;;;;;;;5093358;28;20046;-67
2021/12/18 04:37:56;;;;;;;57.42;28.95;;;;;;;;;;5092022;28;20461;-66
2021/12/18 04:40:25;;;;;;;35.50;18.20;;;;;;;;;;5092050;28;20452;-67
2021/12/18 04:42:52;;;;;;;21.67;13.85;;;;;;;;;;5091955;28;20028;-66
2021/12/18 04:45:18;;;;;;;25.48;13.50;;;;;;;;;;5093230;28;20097;-66
2021/12/18 04:47:45;;;;;;;29.63;15.48;;;;;;;;;;5091929;28;20111;-66
2021/12/18 04:50:11;;;;;;;22.88;14.10;;;;;;;;;;5092910;28;20135;-66
2021/12/18 04:52:37;;;;;;;24.67;12.80;;;;;;;;;;5091868;28;20391;-66
2021/12/18 04:55:04;;;;;;;22.75;12.07;;;;;;;;;;5093425;28;20028;-66
2021/12/18 04:57:30;;;;;;;22.83;11.88;;;;;;;;;;5093114;28;20020;-66
2021/12/18 04:59:57;;;;;;;25.17;12.55;;;;;;;;;;5093157;28;20051;-66
2021/12/18 05:02:33;;;;;;;23.73;11.90;;;;;;;;;;5091767;28;20062;-66
2021/12/18 05:04:59;;;;;;;22.42;11.77;;;;;;;;;;5093039;28;20050;-66
2021/12/18 05:07:26;;;;;;;22.33;10.50;;;;;;;;;;5092698;28;20489;-69
2021/12/18 05:09:53;;;;;;;19.48;12.15;;;;;;;;;;5093134;28;20028;-68
2021/12/18 05:12:19;;;;;;;26.63;12.60;;;;;;;;;;5092982;28;20081;-68
2021/12/18 05:14:45;;;;;;;24.83;12.00;;;;;;;;;;5092947;28;20115;-69
2021/12/18 05:17:11;;;;;;;27.88;12.55;;;;;;;;;;5093243;28;20524;-68
2021/12/18 05:19:39;;;;;;;21.27;11.52;;;;;;;;;;5093026;28;20028;-69
2021/12/18 05:22:05;;;;;;;27.63;14.02;;;;;;;;;;5091550;28;20028;-69
2021/12/18 05:24:31;;;;;;;36.20;16.15;;;;;;;;;;5091441;28;20025;-69
2021/12/18 05:26:58;;;;;;;32.78;14.80;;;;;;;;;;5092549;28;20056;-69
2021/12/18 05:29:25;;;;;;;31.77;16.50;;;;;;;;;;5090132;28;20103;-69
2021/12/18 05:31:51;;;;;;;27.67;14.02;;;;;;;;;;5091335;28;20028;-69
2021/12/18 05:34:25;;;;;;;28.65;13.13;;;;;;;;;;5093011;28;20032;-70
2021/12/18 05:39:21;;;;;;;31.48;16.10;;;;;;;;;;5096454;28;20440;-72
2021/12/18 05:41:50;;;;;;;35.97;17.38;;;;;;;;;;5096550;28;20024;-72
2021/12/18 05:44:17;;;;;;;29.08;13.90;;;;;;;;;;5096546;28;20035;-72
2021/12/18 05:46:43;;;;;;;27.80;15.13;;;;;;;;;;5095071;28;20066;-71
2021/12/18 05:49:10;;;;;;;31.30;14.77;;;;;;;;;;5095116;28;20543;-68
2021/12/18 05:51:36;;;;;;;27.67;15.00;;;;;;;;;;5095898;28;20040;-67
2021/12/18 05:54:03;;;;;;;23.73;12.95;;;;;;;;;;5095051;28;20028;-67
2021/12/18 05:56:29;;;;;;;32.22;14.40;;;;;;;;;;5096209;28;20103;-68
2021/12/18 05:58:56;;;;;;;30.52;14.80;;;;;;;;;;5096528;28;20108;-68
2021/12/18 06:01:22;;;;;;;36.17;17.27;;;;;;;;;;5096234;28;20476;-67
2021/12/18 06:03:48;;;;;;;41.53;19.65;;;;;;;;;;5094464;28;20235;-66
2021/12/18 06:06:15;;;;;;;52.30;24.67;;;;;;;;;;5094727;28;20456;-67
2021/12/18 06:08:42;;;;;;;47.60;24.83;;;;;;;;;;5095935;28;20103;-67
2021/12/18 06:11:15;;;;;;;47.22;22.90;;;;;;;;;;5094849;28;20486;-67
2021/12/18 06:13:42;;;;;;;32.22;16.58;;;;;;;;;;5095840;28;20024;-67
2021/12/18 06:16:08;;;;;;;33.20;15.00;;;;;;;;;;5095981;28;20024;-66
2021/12/18 06:18:44;;;;;;;29.85;15.10;;;;;;;;;;5094528;28;20055;-66
2021/12/18 06:21:10;;;;;;;42.70;18.55;;;;;;;;;;5095898;28;20016;-67
2021/12/18 06:23:36;;;;;;;47.95;22.67;;;;;;;;;;5095729;28;20077;-67
2021/12/18 06:26:03;;;;;;;45.13;22.10;;;;;;;;;;5094464;28;20115;-70
2021/12/18 06:28:29;;;;;;;43.55;22.70;;;;;;;;;;5094419;28;20067;-69
2021/12/18 06:30:55;;;;;;;42.90;20.58;;;;;;;;;;5094453;28;20020;-69
2021/12/18 06:33:21;;;;;;;30.60;17.42;;;;;;;;;;5095629;28;20028;-70
2021/12/18 06:35:48;;;;;;;32.67;17.25;;;;;;;;;;5095610;28;20028;-69
2021/12/18 06:38:14;;;;;;;27.83;15.68;;;;;;;;;;5094201;28;20118;-69
2021/12/18 06:40:40;;;;;;;26.48;15.45;;;;;;;;;;5095285;28;20024;-68
2021/12/18 06:43:07;;;;;;;30.05;14.88;;;;;;;;;;5095712;28;20024;-68
2021/12/18 06:45:33;;;;;;;57.90;29.45;;;;;;;;;;5093999;28;20030;-68
2021/12/18 06:47:59;;;;;;;31.70;16.52;;;;;;;;;;5093990;28;20036;-69
2021/12/18 06:50:25;;;;;;;31.88;15.98;;;;;;;;;;5094692;28;20213;-68
2021/12/18 06:52:52;;;;;;;27.90;16.70;;;;;;;;;;5095571;28;20067;-68
2021/12/18 06:55:18;;;;;;;31.38;17.83;;;;;;;;;;5095227;28;20024;-68
2021/12/18 06:57:44;;;;;;;40.55;19.67;;;;;;;;;;5093880;28;20024;-67
2021/12/18 07:00:12;;;;;;;49.50;23.95;;;;;;;;;;5093851;28;20119;-70
2021/12/18 07:02:39;;;;;;;47.70;26.23;;;;;;;;;;5093780;28;20126;-69
2021/12/18 07:05:05;;;;;;;45.85;24.55;;;;;;;;;;5093587;28;20036;-69
2021/12/18 07:07:31;;;;;;;41.63;21.17;;;;;;;;;;5093677;28;20024;-69
2021/12/18 07:09:57;;;;;;;39.47;21.13;;;;;;;;;;5094958;28;20063;-68
2021/12/18 07:12:24;;;;;;;39.05;19.60;;;;;;;;;;5094839;28;20028;-67
2021/12/18 07:14:50;;;;;;;31.17;17.92;;;;;;;;;;5093497;28;20480;-69
2021/12/18 07:17:16;;;;;;;37.25;21.20;;;;;;;;;;5094819;28;20043;-69
2021/12/18 07:19:42;;;;;;;46.35;25.38;;;;;;;;;;5093467;28;20123;-69
2021/12/18 07:22:08;;;;;;;37.03;20.17;;;;;;;;;;5094782;28;20362;-69
2021/12/18 07:24:35;;;;;;;35.13;20.85;;;;;;;;;;5094583;28;20032;-68
2021/12/18 07:27:01;;;;;;;47.13;23.40;;;;;;;;;;5093308;28;20649;-69
2021/12/18 07:29:27;;;;;;;47.80;24.98;;;;;;;;;;5094853;28;20028;-68
2021/12/18 07:31:53;;;;;;;58.25;29.67;;;;;;;;;;5094398;28;20107;-69
2021/12/18 07:34:19;;;;;;;45.70;27.80;;;;;;;;;;5093177;28;20044;-68
2021/12/18 07:36:46;;;;;;;58.40;31.88;;;;;;;;;;5093077;28;20427;-66
2021/12/18 07:39:12;;;;;;;66.63;31.80;;;;;;;;;;5094343;28;20077;-68
2021/12/18 07:41:38;;;;;;;63.35;31.83;;;;;;;;;;5094086;28;20380;-68
2021/12/18 07:44:06;;;;;;;57.47;28.83;;;;;;;;;;5094208;28;20036;-67
2021/12/18 07:46:33;;;;;;;50.17;26.38;;;;;;;;;;5094226;28;20060;-67
2021/12/18 07:49:00;;;;;;;40.30;21.48;;;;;;;;;;5094237;28;20488;-67
2021/12/18 07:51:26;;;;;;;40.55;23.30;;;;;;;;;;5091589;28;20129;-68
2021/12/18 07:53:52;;;;;;;42.97;21.85;;;;;;;;;;5092653;28;20120;-68
2021/12/18 07:56:19;;;;;;;46.45;23.10;;;;;;;;;;5085508;28;20024;-68
2021/12/18 07:58:46;;;;;;;56.70;28.02;;;;;;;;;;5093455;28;20020;-66
2021/12/18 08:01:12;;;;;;;42.60;20.55;;;;;;;;;;5093125;28;20028;-66
2021/12/18 08:03:38;;;;;;;50.38;26.35;;;;;;;;;;5092109;28;20030;-66
2021/12/18 08:06:05;;;;;;;52.58;28.60;;;;;;;;;;5093822;28;20059;-66
2021/12/18 08:08:31;;;;;;;49.38;27.38;;;;;;;;;;5093826;28;20103;-66
2021/12/18 08:10:57;;;;;;;49.03;25.65;;;;;;;;;;5093840;28;20451;-66
2021/12/18 08:13:23;;;;;;;45.53;23.75;;;;;;;;;;5093737;28;20024;-66
2021/12/18 08:15:49;;;;;;;49.47;25.30;;;;;;;;;;5093937;28;20032;-66
2021/12/18 08:18:16;;;;;;;55.63;30.02;;;;;;;;;;5092258;28;20483;-65
2021/12/18 08:20:42;;;;;;;59.40;30.55;;;;;;;;;;5092305;28;20028;-67
2021/12/18 08:23:08;;;;;;;55.55;31.45;;;;;;;;;;5093580;28;20510;-69
2021/12/18 08:25:36;;;;;;;61.50;29.70;;;;;;;;;;5093172;28;20060;-66
2021/12/18 08:28:03;;;;;;;60.28;31.58;;;;;;;;;;5092184;28;20465;-66
2021/12/18 08:30:31;;;;;;;61.03;27.17;;;;;;;;;;5093501;28;20429;-65
2021/12/18 08:32:58;;;;;;;55.05;24.45;;;;;;;;;;5093432;28;20103;-65
2021/12/18 08:35:25;;;;;;;34.40;18.55;;;;;;;;;;5093355;28;20024;-67
2021/12/18 08:37:52;;;;;;;33.53;18.27;;;;;;;;;;5091976;28;20114;-66
2021/12/18 08:40:18;;;;;;;34.10;17.85;;;;;;;;;;5093254;28;20024;-66
2021/12/18 08:42:45;;;;;;;38.45;20.45;;;;;;;;;;5093631;28;20035;-66
2021/12/18 08:45:11;;;;;;;32.65;16.38;;;;;;;;;;5091827;28;20115;-66
2021/12/18 08:47:38;;;;;;;29.25;14.13;;;;;;;;;;5093209;28;20028;-65
2021/12/18 08:50:06;;;;;;;26.05;13.95;;;;;;;;;;5092935;28;20489;-65
2021/12/18 08:52:32;;;;;;;34.17;19.15;;;;;;;;;;5092444;28;20050;-66
2021/12/18 08:54:59;;;;;;;27.58;17.48;;;;;;;;;;5084965;28;20119;-67
2021/12/18 08:57:25;;;;;;;29.30;16.88;;;;;;;;;;5091723;28;20031;-67
2021/12/18 08:59:52;;;;;;;25.77;14.10;;;;;;;;;;5093231;28;20078;-66
2021/12/18 09:02:18;;;;;;;21.42;13.00;;;;;;;;;;5091578;28;20028;-67
2021/12/18 09:04:44;;;;;;;25.02;11.10;;;;;;;;;;5092799;28;20035;-64
2021/12/18 09:07:10;;;;;;;29.08;14.80;;;;;;;;;;5092927;28;20053;-66
2021/12/18 09:09:38;;;;;;;26.05;13.80;;;;;;;;;;5093278;28;20131;-70
2021/12/18 09:12:05;;;;;;;21.83;12.02;;;;;;;;;;5093144;28;20020;-67
2021/12/18 09:14:31;;;;;;;22.55;11.18;;;;;;;;;;5095770;28;20032;-67
2021/12/18 09:16:57;;;;;;;20.63;11.82;;;;;;;;;;5095814;28;20035;-66
2021/12/18 09:19:24;;;;;;;67.00;33.60;;;;;;;;;;5097275;28;20433;-67
2021/12/18 09:21:50;;;;;;;55.03;29.27;;;;;;;;;;5097013;28;20099;-68
2021/12/18 09:24:16;;;;;;;82.15;36.67;;;;;;;;;;5096856;28;20082;-68
2021/12/18 09:26:42;;;;;;;45.10;23.58;;;;;;;;;;5095583;28;20473;-67
2021/12/18 09:29:08;;;;;;;72.25;34.35;;;;;;;;;;5096845;28;20059;-69
2021/12/18 09:31:35;;;;;;;40.83;18.27;;;;;;;;;;5096764;28;20468;-69
2021/12/18 09:34:01;;;;;;;68.82;35.45;;;;;;;;;;5096999;28;20460;-66
2021/12/18 09:36:28;;;;;;;45.65;20.98;;;;;;;;;;5096740;28;20073;-68
2021/12/18 09:38:54;;;;;;;42.60;19.90;;;;;;;;;;5096941;28;20036;-68
2021/12/18 09:41:20;;;;;;;31.00;16.40;;;;;;;;;;5095359;28;20180;-68
2021/12/18 09:43:47;;;;;;;28.52;14.20;;;;;;;;;;5095503;28;20040;-65
2021/12/18 09:46:14;;;;;;;34.63;17.98;;;;;;;;;;5095276;28;20040;-66
2021/12/18 09:48:41;;;;;;;36.70;19.40;;;;;;;;;;5096449;28;20028;-66
2021/12/18 09:51:12;;;;;;;33.95;15.70;;;;;;;;;;5094731;28;20052;-68
2021/12/18 09:53:39;;;;;;;30.33;15.68;;;;;;;;;;5096529;28;20099;-67
2021/12/18 09:56:06;;;;;;;24.42;12.30;;;;;;;;;;5096131;28;20428;-72
2021/12/18 09:58:32;;;;;;;31.10;13.90;;;;;;;;;;5093213;28;20024;-69
2021/12/18 10:00:59;;;;;;;31.88;14.80;;;;;;;;;;5095577;28;20024;-68
2021/12/18 10:03:43;;;;;;;31.50;16.65;;;;;;;;;;5096050;28;20095;-68
2021/12/18 10:06:29;;;;;;;27.83;14.60;;;;;;;;;;5094787;28;20043;-66
2021/12/18 10:08:56;;;;;;;31.20;14.63;;;;;;;;;;5094968;28;20383;-68
2021/12/18 10:11:22;;;;;;;29.95;15.02;;;;;;;;;;5094683;28;20045;-68
2021/12/18 10:13:56;;;;;;;45.35;18.98;;;;;;;;;;5094672;28;20020;-67
2021/12/18 10:16:23;;;;;;;49.35;20.20;;;;;;;;;;5095882;28;20101;-68
2021/12/18 10:18:50;;;;;;;58.72;26.42;;;;;;;;;;5094174;28;20055;-68
2021/12/18 10:21:21;;;;;;;37.95;18.55;;;;;;;;;;5094569;28;20028;-66
2021/12/18 10:23:48;;;;;;;32.25;15.90;;;;;;;;;;5093846;28;20422;-70
2021/12/18 10:26:29;;;;;;;44.92;19.45;;;;;;;;;;5095458;28;20032;-70
2021/12/18 10:28:55;;;;;;;32.85;15.55;;;;;;;;;;5095613;28;20055;-69
2021/12/18 10:31:41;;;;;;;47.28;20.30;;;;;;;;;;5095112;28;20020;-71
2021/12/18 10:34:17;;;;;;;37.88;17.80;;;;;;;;;;5094350;28;20376;-67
2021/12/18 10:37:03;;;;;;;42.55;18.38;;;;;;;;;;5095452;28;20055;-68
2021/12/18 10:39:30;;;;;;;54.67;23.23;;;;;;;;;;5095410;28;20422;-66
2021/12/18 10:41:56;;;;;;;56.95;24.67;;;;;;;;;;5095466;28;20032;-67
2021/12/18 10:44:22;;;;;;;63.88;29.85;;;;;;;;;;5093955;28;20115;-69
2021/12/18 10:46:53;;;;;;;67.70;29.15;;;;;;;;;;5094994;28;20024;-69
2021/12/18 10:49:22;;;;;;;38.80;16.73;;;;;;;;;;5095038;28;20024;-69
2021/12/18 10:51:50;;;;;;;45.47;22.25;;;;;;;;;;5094997;28;20669;-65
2021/12/18 10:54:18;;;;;;;50.05;22.70;;;;;;;;;;5094803;28;20574;-65
2021/12/18 10:56:48;;;;;;;49.35;23.75;;;;;;;;;;5094957;28;20024;-68
2021/12/18 10:59:22;;;;;;;27.75;16.40;;;;;;;;;;5093825;28;20455;-64
2021/12/18 11:01:52;;;;;;;31.80;17.88;;;;;;;;;;5093881;28;20579;-69
2021/12/18 11:04:29;;;;;;;31.42;17.13;;;;;;;;;;5094936;28;20119;-68
2021/12/18 11:06:55;;;;;;;29.65;16.15;;;;;;;;;;5093476;28;20035;-68
2021/12/18 11:09:28;;;;;;;12.43;6.80;;;;;;;;;;5094888;28;20032;-68
2021/12/18 11:14:30;;;;;;;16.83;6.65;;;;;;;;;;5094884;28;20532;-69
2021/12/18 11:16:59;;;;;;;9.30;4.13;;;;;;;;;;5094909;28;20028;-65
2021/12/18 11:19:27;;;;;;;10.75;5.90;;;;;;;;;;5072730;28;20388;-68
2021/12/18 11:21:55;;;;;;;13.80;6.50;;;;;;;;;;5072805;28;20111;-65
2021/12/18 11:24:22;;;;;;;18.85;8.93;;;;;;;;;;5072712;28;20072;-66
2021/12/18 11:26:51;;;;;;;17.92;6.85;;;;;;;;;;5072726;28;20082;-66
2021/12/18 11:29:20;;;;;;;17.45;6.85;;;;;;;;;;5074019;28;20116;-66
2021/12/18 11:31:47;;;;;;;14.45;6.57;;;;;;;;;;5074157;28;20107;-65
2021/12/18 11:34:13;;;;;;;9.02;4.78;;;;;;;;;;5074136;28;20081;-66
2021/12/18 11:36:41;;;;;;;7.80;4.45;;;;;;;;;;5073950;28;20083;-69
2021/12/18 11:39:09;;;;;;;10.70;5.10;;;;;;;;;;5074037;28;20158;-71
2021/12/18 11:41:35;;;;;;;11.15;5.60;;;;;;;;;;5073997;28;20058;-70
2021/12/18 11:44:04;;;;;;;13.35;5.20;;;;;;;;;;5073726;28;20108;-71
2021/12/18 11:46:31;;;;;;;10.45;5.25;;;;;;;;;;5093849;28;20023;-68
2021/12/18 11:49:00;;;;;;;17.95;9.52;;;;;;;;;;5094028;28;20028;-69
2021/12/18 11:51:27;;;;;;;19.27;10.35;;;;;;;;;;5109530;28;20101;-68
2021/12/18 11:53:53;;;;;;;20.42;10.93;;;;;;;;;;5094064;28;20073;-68
2021/12/18 11:56:19;;;;;;;22.15;10.48;;;;;;;;;;5093949;28;20032;-69
2021/12/18 11:58:47;;;;;;;38.90;19.73;;;;;;;;;;5092612;28;20074;-69
2021/12/18 12:01:14;;;;;;;30.77;18.33;;;;;;;;;;5093888;28;20381;-69
2021/12/18 12:04:01;;;;;;;60.60;36.40;;;;;;;;;;5092549;28;20497;-67
2021/12/18 12:06:32;;;;;;;44.20;26.83;;;;;;;;;;5093694;28;20544;-69
2021/12/18 12:09:35;;;;;;;74.30;41.22;;;;;;;;;;5093732;28;20020;-67
2021/12/18 12:12:02;;;;;;;65.22;37.10;;;;;;;;;;5093623;28;20016;-68
2021/12/18 12:14:29;;;;;;;50.28;30.45;;;;;;;;;;5093704;28;20111;-69
2021/12/18 12:16:59;;;;;;;45.70;25.52;;;;;;;;;;5093328;28;20049;-69
2021/12/18 12:19:39;;;;;;;45.35;26.52;;;;;;;;;;5093650;28;20157;-70
2021/12/18 12:22:07;;;;;;;37.83;18.13;;;;;;;;;;5091541;28;20024;-68
2021/12/18 12:24:52;;;;;;;40.75;17.40;;;;;;;;;;5092600;28;20113;-71
2021/12/18 12:27:29;;;;;;;43.35;18.42;;;;;;;;;;5093664;28;20078;-67
2021/12/18 12:29:56;;;;;;;44.97;17.08;;;;;;;;;;5093115;28;20031;-68
2021/12/18 12:32:22;;;;;;;75.18;40.13;;;;;;;;;;5092200;28;20467;-69
2021/12/18 12:34:59;;;;;;;44.97;21.83;;;;;;;;;;5091795;28;20032;-69
2021/12/18 12:37:28;;;;;;;53.97;24.73;;;;;;;;;;5093239;28;20054;-69
2021/12/18 12:39:56;;;;;;;45.13;21.58;;;;;;;;;;5092515;28;20384;-72
2021/12/18 12:42:29;;;;;;;48.58;21.80;;;;;;;;;;5093296;28;20024;-72
2021/12/18 12:45:09;;;;;;;31.33;17.48;;;;;;;;;;5091977;28;20043;-70
2021/12/18 12:47:36;;;;;;;30.88;16.30;;;;;;;;;;5093145;28;20375;-73
2021/12/18 12:50:22;;;;;;;38.50;19.55;;;;;;;;;;5093035;28;20074;-71
2021/12/18 12:52:59;;;;;;;33.45;17.45;;;;;;;;;;5074712;28;20032;-68
2021/12/18 12:55:27;;;;;;;30.55;15.00;;;;;;;;;;5091806;28;20029;-69
2021/12/18 12:57:55;;;;;;;28.60;15.07;;;;;;;;;;5091699;28;20055;-69
2021/12/18 13:00:24;;;;;;;29.15;15.57;;;;;;;;;;5092842;28;20447;-70
2021/12/18 13:03:01;;;;;;;38.70;19.77;;;;;;;;;;5092913;28;20024;-70
2021/12/18 13:05:29;;;;;;;31.65;16.92;;;;;;;;;;5091437;28;20118;-70
2021/12/18 13:07:56;;;;;;;31.63;16.30;;;;;;;;;;5091334;28;20028;-70
2021/12/18 13:10:24;;;;;;;37.72;23.88;;;;;;;;;;5089428;28;20032;-70
2021/12/18 13:12:59;;;;;;;44.58;26.05;;;;;;;;;;5092656;28;20086;-70
2021/12/18 13:15:25;;;;;;;30.70;19.92;;;;;;;;;;5092632;28;20111;-70
2021/12/18 13:18:08;;;;;;;39.92;22.75;;;;;;;;;;5092709;28;20024;-70
2021/12/18 13:21:00;;;;;;;35.83;19.45;;;;;;;;;;5092951;28;20114;-69
2021/12/18 13:23:39;;;;;;;35.33;19.80;;;;;;;;;;5088989;28;20043;-69
2021/12/18 13:26:06;;;;;;;34.67;18.90;;;;;;;;;;5091506;28;20024;-69
2021/12/18 13:28:33;;;;;;;31.77;19.13;;;;;;;;;;5092545;28;20429;-71
2021/12/18 13:30:59;;;;;;;43.20;22.77;;;;;;;;;;5092895;28;20031;-69
2021/12/18 13:33:29;;;;;;;55.20;28.23;;;;;;;;;;5092853;28;20534;-70
2021/12/18 13:36:00;;;;;;;47.33;25.77;;;;;;;;;;5092862;28;20358;-70
2021/12/18 13:38:33;;;;;;;51.17;23.10;;;;;;;;;;5092791;28;20024;-70
2021/12/18 13:41:00;;;;;;;36.00;20.75;;;;;;;;;;5091552;28;20077;-69
2021/12/18 13:43:26;;;;;;;39.20;21.73;;;;;;;;;;5092839;28;20524;-70
2021/12/18 13:45:57;;;;;;;43.83;25.08;;;;;;;;;;5091400;28;20055;-70
2021/12/18 13:48:28;;;;;;;51.05;24.23;;;;;;;;;;5092699;28;20032;-70
2021/12/18 13:50:54;;;;;;;42.97;22.25;;;;;;;;;;5092813;28;20131;-70
2021/12/18 13:53:21;;;;;;;38.28;19.83;;;;;;;;;;5093011;28;20103;-70
2021/12/18 13:55:54;;;;;;;60.53;28.42;;;;;;;;;;5091027;28;20065;-71
2021/12/18 13:58:41;;;;;;;66.25;32.60;;;;;;;;;;5092679;28;20107;-70
2021/12/18 14:01:12;;;;;;;49.08;23.48;;;;;;;;;;5095769;28;20016;-69
2021/12/18 14:03:58;;;;;;;46.53;24.83;;;;;;;;;;5093410;28;20099;-71
2021/12/18 14:06:38;;;;;;;39.67;23.90;;;;;;;;;;5095612;28;20039;-70
2021/12/18 14:09:06;;;;;;;40.08;22.42;;;;;;;;;;5096115;28;20034;-67
2021/12/18 14:11:37;;;;;;;30.95;18.23;;;;;;;;;;5096034;28;20020;-68
2021/12/18 14:14:08;;;;;;;28.77;17.27;;;;;;;;;;5096049;28;20449;-69
2021/12/18 14:16:34;;;;;;;39.22;19.38;;;;;;;;;;5096200;28;20453;-71
2021/12/18 14:19:02;;;;;;;31.83;18.42;;;;;;;;;;5095925;28;20024;-67
2021/12/18 14:21:36;;;;;;;28.08;16.23;;;;;;;;;;5095822;28;20020;-68
2021/12/18 14:24:03;;;;;;;32.38;15.45;;;;;;;;;;5095354;28;20062;-69
2021/12/18 14:26:30;;;;;;;39.63;19.55;;;;;;;;;;5095770;28;20020;-70
2021/12/18 14:28:57;;;;;;;46.50;20.45;;;;;;;;;;5095678;28;20107;-67
2021/12/18 14:31:31;;;;;;;41.20;21.30;;;;;;;;;;5095936;28;20077;-69
2021/12/18 14:33:59;;;;;;;41.67;21.05;;;;;;;;;;5095737;28;20024;-69
2021/12/18 14:36:58;;;;;;;45.58;22.83;;;;;;;;;;5094194;28;20021;-67
2021/12/18 14:39:25;;;;;;;53.28;24.15;;;;;;;;;;5012913;28;20042;-68
2021/12/18 14:42:00;;;;;;;44.33;22.63;;;;;;;;;;4996634;28;20125;-67
2021/12/18 14:44:27;;;;;;;47.65;23.02;;;;;;;;;;5013090;28;20030;-68
2021/12/18 14:47:10;;;;;;;61.92;27.35;;;;;;;;;;5013092;28;20044;-69
2021/12/18 14:49:37;;;;;;;71.05;30.92;;;;;;;;;;4996071;28;20145;-70
2021/12/18 14:52:04;;;;;;;84.45;35.63;;;;;;;;;;5012952;28;20041;-67
2021/12/18 14:54:45;;;;;;;86.80;35.88;;;;;;;;;;4996368;28;20033;-69
2021/12/18 14:57:15;;;;;;;84.07;35.40;;;;;;;;;;5012843;28;20061;-67
2021/12/18 14:59:41;;;;;;;76.85;32.65;;;;;;;;;;5012587;28;20053;-73
2021/12/18 15:02:08;;;;;;;64.18;29.60;;;;;;;;;;5011923;28;20068;-70
2021/12/18 15:04:34;;;;;;;68.55;29.75;;;;;;;;;;4996061;28;20034;-65
2021/12/18 15:07:00;;;;;;;50.60;23.70;;;;;;;;;;5012389;28;20046;-65